Camden, AL (36726)

6:53 AM CDT on August 25, 2016 (GMT -0500)
Greenville Municipal | | Change Station

Elev 449 ft 31.85 °N, 86.61 °W | Updated 57 minutes ago

Overcast
Overcast
76 °F
Feels Like 76 °F
N
0
Wind Variable Wind from North

Today
High -- | Low -- °F
--% Chance of Precip.
Yesterday
High -- | Low -- °F
Precip. -- in
Pressure 30.13 in
Visibility 8.0 miles
Clouds Overcast 7000 ft
Dew Point 72 °F
Humidity 87%
Rainfall 0.00 in
Snow Depth Not available.
6:20 AM 7:21 PM
Last Quarter, 46% visible
METAR KPRN 251056Z AUTO 00000KT 8SM OVC070 24/22 A3015 RMK AO2 SLP202 T02440222
Pressure 30.13 in
Visibility 8.0 miles
Clouds Overcast 7000 ft
Dew Point 72 °F
Humidity 87%
Rainfall 0.00 in
Snow Depth Not available.
6:20 AM 7:21 PM
Last Quarter, 46% visible
METAR KPRN 251056Z AUTO 00000KT 8SM OVC070 24/22 A3015 RMK AO2 SLP202 T02440222

10-Day Weather Forecast

Almanac

Astronomy

Aug. 25, 2016 Rise Set
Actual Time
Civil Twilight
Nautical Twilight
Astronomical Twilight
Moon
Length of Visible Light
Length of Day
Tomorrow will be .
, % of the Moon is Illuminated

Today's Extremes

State Highs State Lows

Community

WunderPhotos

Upload Photos

1,934,821 photos uploaded!

WunderBlog® & News

Nearby

Air Quality

  Air Quality AQ Index Pollutant
Not available.

Snow Depth

Station Depth Elevation

Earthquake Activity

City Distance Mag. Time & Date
Minimum magnitude displayed is 2.5.

Coastal Water Temperatures

Place Temperature

Stations

Nearby Weather Stations

Station Location Temp. Windchill Dew Point Humidity Wind Precip. Elev Updated Type
                   

Watches & Warnings

There are currently no watches in effect.